createdAt,value
2023-02-14T00:00:43.138Z,100000.56
2023-02-14T00:03:09.607Z,100014.75
2023-02-14T00:05:36.139Z,100014.97
2023-02-14T00:08:02.558Z,100012.84
2023-02-14T00:10:29.050Z,100009.00
2023-02-14T00:12:55.492Z,100009.22
2023-02-14T00:15:25.887Z,99997.34
2023-02-14T00:17:55.442Z,99996.13
2023-02-14T00:20:23.167Z,99993.81
2023-02-14T00:22:50.359Z,99999.53
2023-02-14T00:25:18.137Z,99991.47
2023-02-14T00:27:45.033Z,99985.78
2023-02-14T00:30:13.638Z,99982.38
2023-02-14T00:32:41.573Z,99992.00
2023-02-14T00:35:09.346Z,99994.16
2023-02-14T00:37:36.049Z,99987.25
2023-02-14T00:40:02.827Z,99939.13
2023-02-14T00:42:29.272Z,99983.44
2023-02-14T00:44:55.761Z,99986.63
2023-02-14T00:47:22.283Z,99987.31
2023-02-14T00:49:48.789Z,99989.19
2023-02-14T00:52:15.430Z,99991.25
2023-02-14T00:54:42.112Z,99994.94
2023-02-14T00:57:08.596Z,99998.72
2023-02-14T00:59:36.304Z,99988.63
2023-02-14T01:02:04.015Z,99985.13
2023-02-14T01:04:30.506Z,99993.78
2023-02-14T01:06:57.014Z,99983.28
2023-02-14T01:09:23.426Z,99995.22
2023-02-14T01:11:50.118Z,99997.56
2023-02-14T01:14:16.534Z,99994.72
2023-02-14T01:16:42.989Z,100005.81
2023-02-14T01:19:09.496Z,100009.56
2023-02-14T01:21:36.036Z,100003.75
2023-02-14T01:24:06.158Z,100008.72
2023-02-14T01:26:34.188Z,100008.09
2023-02-14T01:29:01.715Z,100005.59
2023-02-14T01:31:31.553Z,99991.75
2023-02-14T01:33:59.422Z,100002.84
2023-02-14T01:36:36.491Z,100004.47
2023-02-14T01:39:11.508Z,100005.53
2023-02-14T01:41:39.745Z,100000.97
2023-02-14T01:44:26.401Z,100005.38
2023-02-14T01:46:52.975Z,100000.34
2023-02-14T01:49:47.473Z,99997.22
2023-02-14T01:52:37.648Z,100003.09
2023-02-14T01:55:13.008Z,99983.84
2023-02-14T01:57:54.046Z,99988.22
2023-02-14T02:00:40.577Z,99987.28
2023-02-14T02:03:08.192Z,99995.78
2023-02-14T02:05:40.084Z,99994.03
2023-02-14T02:08:06.716Z,99993.22
2023-02-14T02:10:33.146Z,99985.16
2023-02-14T02:13:05.950Z,99989.53
2023-02-14T02:15:42.370Z,99986.91
2023-02-14T02:18:29.949Z,99989.00
2023-02-14T02:21:15.199Z,99982.88
2023-02-14T02:23:59.030Z,99988.94
2023-02-14T02:26:57.110Z,99983.28
2023-02-14T02:29:56.626Z,99985.56
2023-02-14T02:33:01.756Z,99977.94
2023-02-14T02:35:50.044Z,99976.78
2023-02-14T02:38:55.333Z,99973.69
2023-02-14T02:41:53.052Z,99979.31
2023-02-14T02:44:35.862Z,99969.66
2023-02-14T02:47:31.152Z,99971.22
2023-02-14T02:50:32.858Z,99976.97
2023-02-14T02:53:05.440Z,99980.81
2023-02-14T02:55:53.026Z,99976.78
2023-02-14T02:58:22.479Z,99979.38
2023-02-14T03:00:53.057Z,99974.03
2023-02-14T03:03:43.312Z,99977.56
2023-02-14T03:06:09.875Z,99979.38
2023-02-14T03:08:36.290Z,99979.25
2023-02-14T03:11:04.872Z,99978.31
2023-02-14T03:14:03.140Z,99972.34
2023-02-14T03:16:41.655Z,99971.41
2023-02-14T03:19:55.323Z,99971.91
2023-02-14T03:22:35.084Z,99965.78
2023-02-14T03:25:16.534Z,99972.88
2023-02-14T03:28:18.860Z,99965.53
2023-02-14T03:31:02.546Z,99967.72
2023-02-14T03:33:41.140Z,99970.97
2023-02-14T03:36:31.604Z,99968.72
2023-02-14T03:39:15.982Z,99973.31
2023-02-14T03:42:06.292Z,99965.06
2023-02-14T03:44:35.312Z,99973.50
2023-02-14T03:47:07.448Z,99971.84
2023-02-14T03:49:39.792Z,99984.06
2023-02-14T03:52:09.676Z,99961.00
2023-02-14T03:54:36.610Z,99960.50
2023-02-14T03:57:22.182Z,99966.75
2023-02-14T03:59:48.996Z,99978.06
2023-02-14T04:02:23.349Z,99978.66
2023-02-14T04:04:51.610Z,99976.63
2023-02-14T04:07:21.020Z,99981.78
2023-02-14T04:09:48.290Z,99979.91
2023-02-14T04:12:16.950Z,99977.69
2023-02-14T04:14:44.794Z,99981.31
2023-02-14T04:17:30.133Z,99983.06
2023-02-14T04:19:56.656Z,99979.53
2023-02-14T04:22:23.191Z,99982.75
2023-02-14T04:24:49.679Z,99979.19
2023-02-14T04:27:16.162Z,99980.91
2023-02-14T04:29:44.219Z,99993.00
2023-02-14T04:32:17.477Z,99977.69
2023-02-14T04:34:44.552Z,99980.03
2023-02-14T04:37:11.762Z,99973.31
2023-02-14T04:39:39.347Z,99977.59
2023-02-14T04:42:06.512Z,99981.34
2023-02-14T04:44:34.089Z,99980.31
2023-02-14T04:47:01.591Z,99979.56
2023-02-14T04:49:28.025Z,99975.19
2023-02-14T04:51:54.628Z,99981.81
2023-02-14T04:54:22.009Z,99969.78
2023-02-14T04:56:48.994Z,99978.69
2023-02-14T04:59:15.578Z,99966.25
2023-02-14T05:01:42.336Z,99967.81
2023-02-14T05:04:08.926Z,99966.44
2023-02-14T05:06:35.444Z,99958.06
2023-02-14T05:09:02.363Z,99965.16
2023-02-14T05:11:29.428Z,99963.69
2023-02-14T05:13:56.202Z,99961.41
2023-02-14T05:16:23.105Z,99966.63
2023-02-14T05:18:49.712Z,99958.81
2023-02-14T05:21:16.264Z,99966.75
2023-02-14T05:23:42.680Z,99967.69
2023-02-14T05:26:09.217Z,99968.75
2023-02-14T05:28:36.136Z,99966.78
2023-02-14T05:31:03.152Z,99966.66
2023-02-14T05:33:29.928Z,99964.56
2023-02-14T05:35:59.891Z,99959.72
2023-02-14T05:38:26.485Z,99963.91
2023-02-14T05:40:52.954Z,99958.59
2023-02-14T05:43:19.456Z,99959.53
2023-02-14T05:45:45.966Z,99959.19
2023-02-14T05:48:13.264Z,99955.66
2023-02-14T05:50:39.701Z,99952.63
2023-02-14T05:53:06.834Z,99954.91
2023-02-14T05:55:33.350Z,99964.53
2023-02-14T05:57:59.779Z,99967.84
2023-02-14T06:00:26.455Z,99961.50
2023-02-14T06:02:52.982Z,99952.59
2023-02-14T06:05:20.156Z,99953.50
2023-02-14T06:07:50.531Z,99955.44
2023-02-14T06:10:22.086Z,99961.19
2023-02-14T06:12:49.747Z,99961.34
2023-02-14T06:15:16.414Z,99958.81
2023-02-14T06:17:43.449Z,99967.88
2023-02-14T06:20:11.435Z,99962.59
2023-02-14T06:22:39.100Z,99971.03
2023-02-14T06:25:06.537Z,99967.63
2023-02-14T06:27:33.360Z,99982.50
2023-02-14T06:29:59.972Z,99964.38
2023-02-14T06:32:26.670Z,99987.84
2023-02-14T06:34:53.116Z,99981.28
2023-02-14T06:37:20.097Z,99984.72
2023-02-14T06:39:46.673Z,99992.44
2023-02-14T06:42:13.153Z,99996.16
2023-02-14T06:44:39.637Z,99992.81
2023-02-14T06:47:07.961Z,100003.69
2023-02-14T06:49:34.656Z,99995.53
2023-02-14T06:52:01.130Z,100001.50
2023-02-14T06:54:28.654Z,100008.31
2023-02-14T06:56:55.132Z,100009.44
2023-02-14T06:59:21.727Z,100007.66
2023-02-14T07:01:48.336Z,100000.78
2023-02-14T07:04:15.003Z,100002.34
2023-02-14T07:06:41.589Z,100007.25
2023-02-14T07:09:08.491Z,99998.88
2023-02-14T07:11:34.965Z,99999.94
2023-02-14T07:14:01.446Z,99994.06
2023-02-14T07:16:27.963Z,99993.66
2023-02-14T07:18:54.369Z,99996.06
2023-02-14T07:21:20.854Z,99995.53
2023-02-14T07:23:49.898Z,100001.19
2023-02-14T07:26:18.098Z,99996.16
2023-02-14T07:28:45.859Z,99991.94
2023-02-14T07:31:12.700Z,99995.72
2023-02-14T07:33:39.560Z,99992.44
2023-02-14T07:36:07.884Z,99985.25
2023-02-14T07:38:35.607Z,99958.47
2023-02-14T07:41:02.549Z,99979.09
2023-02-14T07:43:29.221Z,99982.97
2023-02-14T07:45:55.778Z,99982.28
2023-02-14T07:48:22.408Z,99974.44
2023-02-14T07:50:48.908Z,99983.81
2023-02-14T07:53:15.359Z,99966.34
2023-02-14T07:55:41.807Z,99972.66
2023-02-14T07:58:09.472Z,99975.56
2023-02-14T08:00:35.924Z,99980.31
2023-02-14T08:03:02.384Z,99974.63
2023-02-14T08:05:29.672Z,99972.25
2023-02-14T08:07:56.116Z,99967.38
2023-02-14T08:10:22.872Z,99973.25
2023-02-14T08:13:01.741Z,99978.97
2023-02-14T08:15:51.486Z,99973.38
2023-02-14T08:18:19.958Z,99985.91
2023-02-14T08:20:49.633Z,99972.66
2023-02-14T08:23:18.564Z,99991.38
2023-02-14T08:25:45.423Z,99973.59
2023-02-14T08:28:13.675Z,99984.22
2023-02-14T08:30:40.980Z,99999.25
2023-02-14T08:33:08.588Z,99984.69
2023-02-14T08:35:36.027Z,99988.41
2023-02-14T08:38:02.480Z,99980.19
2023-02-14T08:40:29.030Z,99981.13
2023-02-14T08:42:55.530Z,99950.81
2023-02-14T08:45:22.095Z,99986.59
2023-02-14T08:47:48.784Z,99973.25
2023-02-14T08:50:17.456Z,99980.31
2023-02-14T08:52:44.472Z,99981.03
2023-02-14T08:55:11.664Z,99974.19
2023-02-14T08:57:38.401Z,99950.56
2023-02-14T09:00:07.665Z,99975.84
2023-02-14T09:02:34.441Z,99972.44
2023-02-14T09:05:01.104Z,99972.00
2023-02-14T09:07:27.669Z,99978.88
2023-02-14T09:09:54.144Z,99979.13
2023-02-14T09:12:20.591Z,99970.25
2023-02-14T09:14:47.674Z,99960.84
2023-02-14T09:17:15.278Z,99974.00
2023-02-14T09:19:42.332Z,99971.34
2023-02-14T09:22:10.391Z,99957.72
2023-02-14T09:24:38.646Z,99963.94
2023-02-14T09:27:05.746Z,99967.50
2023-02-14T09:29:34.255Z,99967.31
2023-02-14T09:32:01.951Z,99957.47
2023-02-14T09:34:48.611Z,99953.19
2023-02-14T09:37:33.984Z,99944.38
2023-02-14T09:40:00.836Z,99961.56
2023-02-14T09:42:27.250Z,99959.34
2023-02-14T09:45:07.109Z,99961.50
2023-02-14T09:47:40.447Z,99959.69
2023-02-14T09:50:19.130Z,99952.75
2023-02-14T09:52:49.751Z,99956.47
2023-02-14T09:55:18.005Z,99952.28
2023-02-14T09:58:13.308Z,99950.31
2023-02-14T10:00:48.721Z,99956.38
2023-02-14T10:03:48.026Z,99947.13
2023-02-14T10:06:38.849Z,99943.13
2023-02-14T10:09:28.646Z,99947.09
2023-02-14T10:11:57.954Z,99940.47
2023-02-14T10:14:29.957Z,99939.16
2023-02-14T10:17:15.082Z,99936.47
2023-02-14T10:19:48.347Z,99938.56
2023-02-14T10:22:18.259Z,99939.88
2023-02-14T10:24:47.643Z,99938.66
2023-02-14T10:27:42.521Z,99926.66
2023-02-14T10:30:18.172Z,99931.94
2023-02-14T10:33:11.099Z,99925.56
2023-02-14T10:35:51.190Z,99933.47
2023-02-14T10:38:46.461Z,99936.31
2023-02-14T10:41:35.749Z,99936.00
2023-02-14T10:44:20.540Z,99936.53
2023-02-14T10:47:04.488Z,99929.28
2023-02-14T10:49:53.428Z,99917.84
2023-02-14T10:52:29.431Z,99917.06
2023-02-14T10:55:00.031Z,99916.34
2023-02-14T10:57:36.614Z,99916.41
2023-02-14T11:00:07.188Z,99906.91
2023-02-14T11:02:40.074Z,99914.22
2023-02-14T11:05:17.751Z,99911.81
2023-02-14T11:07:44.658Z,99907.47
2023-02-14T11:10:14.691Z,99905.16
2023-02-14T11:12:41.833Z,99897.09
2023-02-14T11:15:17.281Z,99899.69
2023-02-14T11:17:43.838Z,99887.34
2023-02-14T11:20:30.312Z,99890.41
2023-02-14T11:22:57.546Z,99876.00
2023-02-14T11:25:29.745Z,99878.53
2023-02-14T11:28:05.940Z,99876.72
2023-02-14T11:30:40.864Z,99871.78
2023-02-14T11:33:13.278Z,99867.97
2023-02-14T11:35:40.035Z,99866.91
2023-02-14T11:38:24.898Z,99864.75
2023-02-14T11:40:55.938Z,99858.84
2023-02-14T11:43:38.118Z,99852.75
2023-02-14T11:46:14.901Z,99854.91
2023-02-14T11:48:59.633Z,99853.53
2023-02-14T11:51:29.826Z,99850.41
2023-02-14T11:54:01.601Z,99849.22
2023-02-14T11:56:54.369Z,99849.06
2023-02-14T11:59:44.095Z,99846.25
2023-02-14T12:02:32.706Z,99848.63
2023-02-14T12:05:04.874Z,99853.06
2023-02-14T12:07:37.735Z,99846.25
2023-02-14T12:10:15.585Z,99842.97
2023-02-14T12:12:50.153Z,99836.53
2023-02-14T12:15:25.690Z,99834.50
2023-02-14T12:18:00.579Z,99832.44
2023-02-14T12:20:38.021Z,99819.91
2023-02-14T12:23:17.560Z,99817.50
2023-02-14T12:25:52.738Z,99816.41
2023-02-14T12:28:25.935Z,99818.94
2023-02-14T12:30:52.491Z,99814.31
2023-02-14T12:33:21.745Z,99814.78
2023-02-14T12:36:24.308Z,99808.44
2023-02-14T12:39:08.493Z,99811.97
2023-02-14T12:42:00.567Z,99809.16
2023-02-14T12:44:57.662Z,99801.63
2023-02-14T12:47:39.091Z,99793.78
2023-02-14T12:50:21.529Z,99789.88
2023-02-14T12:53:06.106Z,99791.19
2023-02-14T12:55:42.110Z,99790.53
2023-02-14T12:58:44.114Z,99781.22
2023-02-14T13:01:24.763Z,99776.63
2023-02-14T13:04:47.447Z,99777.50
2023-02-14T13:07:29.834Z,99775.66
2023-02-14T13:10:25.071Z,99762.19
2023-02-14T13:13:14.338Z,99759.25
2023-02-14T13:15:45.012Z,99759.06
2023-02-14T13:18:36.566Z,99751.00
2023-02-14T13:21:06.351Z,99745.38
2023-02-14T13:23:41.154Z,99748.28
2023-02-14T13:26:14.705Z,99741.44
2023-02-14T13:29:10.765Z,99734.91
2023-02-14T13:31:38.688Z,99751.03
2023-02-14T13:34:13.714Z,99740.38
2023-02-14T13:36:40.989Z,99731.59
2023-02-14T13:39:13.918Z,99734.63
2023-02-14T13:41:41.788Z,99736.31
2023-02-14T13:44:08.385Z,99729.41
2023-02-14T13:46:35.228Z,99730.19
2023-02-14T13:49:23.471Z,99730.94
2023-02-14T13:51:57.178Z,99720.72
2023-02-14T13:54:47.530Z,99683.81
2023-02-14T13:57:36.434Z,99734.59
2023-02-14T14:00:19.335Z,99727.59
2023-02-14T14:02:56.598Z,99719.66
2023-02-14T14:05:50.007Z,99719.00
2023-02-14T14:08:29.866Z,99721.69
2023-02-14T14:10:59.802Z,99720.97
2023-02-14T14:13:41.873Z,99720.69
2023-02-14T14:16:23.599Z,99716.66
2023-02-14T14:19:16.362Z,99706.66
2023-02-14T14:21:45.524Z,99712.06
2023-02-14T14:24:22.955Z,99708.25
2023-02-14T14:27:06.485Z,99699.44
2023-02-14T14:29:59.626Z,99711.09
2023-02-14T14:32:29.983Z,99702.50
2023-02-14T14:35:21.660Z,99703.13
2023-02-14T14:38:01.048Z,99704.22
2023-02-14T14:40:34.913Z,99700.59
2023-02-14T14:43:10.266Z,99705.31
2023-02-14T14:45:40.955Z,99633.78
2023-02-14T14:48:14.021Z,99679.81
2023-02-14T14:50:45.700Z,99626.59
2023-02-14T14:53:23.523Z,99688.16
2023-02-14T14:55:54.446Z,99680.28
2023-02-14T14:58:39.589Z,99709.41
2023-02-14T15:01:21.381Z,99690.13
2023-02-14T15:03:48.915Z,99631.56
2023-02-14T15:06:22.737Z,99710.06
2023-02-14T15:08:49.962Z,99708.94
2023-02-14T15:11:41.916Z,99695.50
2023-02-14T15:14:15.767Z,99706.88
2023-02-14T15:17:14.033Z,99700.66
2023-02-14T15:19:44.747Z,99669.16
2023-02-14T15:22:25.924Z,99707.56
2023-02-14T15:24:57.908Z,99692.34
2023-02-14T15:27:26.614Z,99677.75
2023-02-14T15:30:10.046Z,99703.81
2023-02-14T15:32:40.291Z,99635.88
2023-02-14T15:35:14.688Z,99695.03
2023-02-14T15:37:45.335Z,99622.88
2023-02-14T15:40:23.106Z,99654.19
2023-02-14T15:42:57.417Z,99690.75
2023-02-14T15:45:28.793Z,99698.84
2023-02-14T15:47:59.208Z,99675.84
2023-02-14T15:50:33.067Z,99659.78
2023-02-14T15:53:17.273Z,99649.09
2023-02-14T15:55:44.599Z,99679.97
2023-02-14T15:58:23.157Z,99686.09
2023-02-14T16:00:53.382Z,99701.19
2023-02-14T16:03:26.871Z,99696.06
2023-02-14T16:05:55.044Z,99631.78
2023-02-14T16:08:31.641Z,99702.00
2023-02-14T16:11:30.065Z,99679.00
2023-02-14T16:13:56.928Z,99699.63
2023-02-14T16:16:23.896Z,99668.75
2023-02-14T16:18:56.601Z,99698.97
2023-02-14T16:21:27.575Z,99700.84
2023-02-14T16:24:11.286Z,99703.66
2023-02-14T16:26:39.544Z,99701.88
2023-02-14T16:29:08.358Z,99707.91
2023-02-14T16:31:38.516Z,99682.13
2023-02-14T16:34:05.568Z,99691.31
2023-02-14T16:36:34.495Z,99640.56
2023-02-14T16:39:05.960Z,99713.44
2023-02-14T16:41:34.607Z,99717.50
2023-02-14T16:44:01.520Z,99658.91
2023-02-14T16:46:31.555Z,99709.81
2023-02-14T16:48:59.562Z,99707.63
2023-02-14T16:51:29.890Z,99728.06
2023-02-14T16:54:00.592Z,99657.47
2023-02-14T16:56:36.791Z,99720.91
2023-02-14T16:59:03.686Z,99674.47
2023-02-14T17:01:30.357Z,99701.00
2023-02-14T17:03:58.694Z,99639.31
2023-02-14T17:06:28.637Z,99687.75
2023-02-14T17:08:58.526Z,99740.75
2023-02-14T17:11:27.478Z,99666.19
2023-02-14T17:13:55.078Z,99750.78
2023-02-14T17:16:22.630Z,99717.19
2023-02-14T17:18:52.153Z,99730.03
2023-02-14T17:21:23.516Z,99740.66
2023-02-14T17:23:50.781Z,99731.63
2023-02-14T17:26:19.036Z,99747.16
2023-02-14T17:28:47.575Z,99720.72
2023-02-14T17:31:17.038Z,99741.69
2023-02-14T17:33:54.521Z,99758.63
2023-02-14T17:36:32.188Z,99755.41
2023-02-14T17:39:09.309Z,99563.03
2023-02-14T17:41:36.571Z,99728.75
2023-02-14T17:44:05.181Z,99709.31
2023-02-14T17:46:32.680Z,99744.19
2023-02-14T17:49:03.220Z,99740.94
2023-02-14T17:51:30.888Z,99736.31
2023-02-14T17:53:59.034Z,99731.69
2023-02-14T17:56:26.213Z,99715.72
2023-02-14T17:58:55.285Z,99725.16
2023-02-14T18:01:24.629Z,99742.59
2023-02-14T18:03:53.028Z,99747.97
2023-02-14T18:06:19.820Z,99753.66
2023-02-14T18:08:53.588Z,99746.72
2023-02-14T18:11:21.643Z,99702.72
2023-02-14T18:13:48.645Z,99726.91
2023-02-14T18:16:18.460Z,99735.00
2023-02-14T18:18:45.898Z,99656.56
2023-02-14T18:21:25.725Z,99742.34
2023-02-14T18:24:06.668Z,99666.38
2023-02-14T18:26:34.732Z,99612.31
2023-02-14T18:29:06.802Z,99716.97
2023-02-14T18:31:35.622Z,99738.00
2023-02-14T18:34:05.640Z,99724.34
2023-02-14T18:36:36.179Z,99680.03
2023-02-14T18:39:04.213Z,99743.50
2023-02-14T18:41:31.961Z,99719.41
2023-02-14T18:43:59.110Z,99634.28
2023-02-14T18:46:30.684Z,99725.25
2023-02-14T18:48:57.914Z,99707.34
2023-02-14T18:51:27.603Z,99719.16
2023-02-14T18:53:59.981Z,99725.50
2023-02-14T18:56:30.651Z,99686.38
2023-02-14T18:59:04.859Z,99727.75
2023-02-14T19:01:36.938Z,99717.63
2023-02-14T19:04:09.326Z,99720.16
2023-02-14T19:06:40.968Z,99721.09
2023-02-14T19:09:13.557Z,99649.31
2023-02-14T19:11:42.104Z,99712.13
2023-02-14T19:14:13.804Z,99631.03
2023-02-14T19:16:51.266Z,99693.31
2023-02-14T19:19:24.116Z,99659.81
2023-02-14T19:21:52.051Z,99700.03
2023-02-14T19:24:19.929Z,99695.56
2023-02-14T19:26:48.358Z,99625.31
2023-02-14T19:29:18.299Z,99661.25
2023-02-14T19:31:48.400Z,99615.78
2023-02-14T19:34:29.319Z,99690.59
2023-02-14T19:36:59.130Z,99695.13
2023-02-14T19:39:29.648Z,99685.25
2023-02-14T19:41:58.223Z,99686.91
2023-02-14T19:44:26.804Z,99656.06
2023-02-14T19:46:59.828Z,99617.00
2023-02-14T19:49:33.217Z,99687.97
2023-02-14T19:52:00.159Z,99676.81
2023-02-14T19:54:29.969Z,99621.06
2023-02-14T19:56:57.445Z,99572.38
2023-02-14T19:59:28.643Z,99669.19
2023-02-14T20:01:56.573Z,99663.34
2023-02-14T20:04:27.832Z,99643.44
2023-02-14T20:06:56.101Z,99668.47
2023-02-14T20:09:23.738Z,99657.03
2023-02-14T20:11:54.404Z,99667.63
2023-02-14T20:14:25.092Z,99660.59
2023-02-14T20:16:54.012Z,99659.75
2023-02-14T20:19:23.442Z,99655.25
2023-02-14T20:21:51.230Z,99599.16
2023-02-14T20:24:20.547Z,99656.09
2023-02-14T20:26:48.190Z,99660.72
2023-02-14T20:29:16.280Z,99647.38
2023-02-14T20:31:45.563Z,99653.69
2023-02-14T20:34:13.200Z,99659.06
2023-02-14T20:36:41.233Z,99576.88
2023-02-14T20:39:09.721Z,99643.94
2023-02-14T20:41:36.429Z,99640.09
2023-02-14T20:44:10.687Z,99643.59
2023-02-14T20:46:37.659Z,99646.81
2023-02-14T20:49:05.747Z,99647.25
2023-02-14T20:51:34.971Z,99628.44
2023-02-14T20:54:04.004Z,99640.25
2023-02-14T20:56:31.129Z,99636.19
2023-02-14T20:59:00.681Z,99638.56
2023-02-14T21:01:27.950Z,99639.03
2023-02-14T21:03:55.499Z,99631.97
2023-02-14T21:06:28.157Z,99618.75
2023-02-14T21:08:55.440Z,99621.53
2023-02-14T21:11:24.315Z,99628.06
2023-02-14T21:13:57.583Z,99612.72
2023-02-14T21:16:25.850Z,99600.69
2023-02-14T21:18:59.329Z,99610.81
2023-02-14T21:21:26.213Z,99630.31
2023-02-14T21:23:53.855Z,99590.09
2023-02-14T21:26:21.401Z,99564.75
2023-02-14T21:28:49.318Z,99597.84
2023-02-14T21:31:21.241Z,99621.28
2023-02-14T21:33:57.487Z,99606.78
2023-02-14T21:36:26.561Z,99595.72
2023-02-14T21:38:58.884Z,99608.56
2023-02-14T21:41:29.794Z,99618.94
2023-02-14T21:43:57.935Z,99560.56
2023-02-14T21:46:31.518Z,99598.81
2023-02-14T21:49:22.683Z,99612.50
2023-02-14T21:51:49.241Z,99570.09
2023-02-14T21:54:16.793Z,99605.56
2023-02-14T21:56:43.938Z,99600.84
2023-02-14T21:59:11.101Z,99578.44
2023-02-14T22:01:39.579Z,99604.28
2023-02-14T22:04:09.484Z,99578.44
2023-02-14T22:06:38.371Z,99593.22
2023-02-14T22:09:05.910Z,99591.53
2023-02-14T22:11:35.379Z,99577.25
2023-02-14T22:14:02.220Z,99573.34
2023-02-14T22:16:29.164Z,99592.47
2023-02-14T22:18:56.046Z,99586.78
2023-02-14T22:21:25.785Z,99569.75
2023-02-14T22:23:53.211Z,99556.31
2023-02-14T22:26:29.054Z,99563.94
2023-02-14T22:29:00.785Z,99583.41
2023-02-14T22:31:33.162Z,99583.66
2023-02-14T22:34:00.023Z,99560.81
2023-02-14T22:36:26.912Z,99482.03
2023-02-14T22:38:53.817Z,99573.59
2023-02-14T22:41:23.924Z,99583.81
2023-02-14T22:43:52.448Z,99587.06
2023-02-14T22:46:23.478Z,99586.09
2023-02-14T22:48:51.526Z,99480.34
2023-02-14T22:51:21.654Z,99575.84
2023-02-14T22:53:50.848Z,99581.69
2023-02-14T22:56:26.268Z,99545.97
2023-02-14T22:58:58.642Z,99565.50
2023-02-14T23:01:26.007Z,99571.34
2023-02-14T23:03:57.827Z,99565.25
2023-02-14T23:06:26.946Z,99583.00
2023-02-14T23:08:54.545Z,99583.13
2023-02-14T23:11:24.643Z,99583.84
2023-02-14T23:14:13.013Z,99579.28
2023-02-14T23:16:58.815Z,99557.00
2023-02-14T23:19:46.734Z,99580.91
2023-02-14T23:22:17.128Z,99571.41
2023-02-14T23:24:45.656Z,99568.78
2023-02-14T23:27:12.273Z,99584.00
2023-02-14T23:29:38.816Z,99589.72
2023-02-14T23:32:06.624Z,99569.28
2023-02-14T23:34:35.562Z,99582.34
2023-02-14T23:37:02.394Z,99561.69
2023-02-14T23:39:29.149Z,99583.34
2023-02-14T23:41:56.109Z,99562.47
2023-02-14T23:44:28.082Z,99555.19
2023-02-14T23:46:58.864Z,99566.28
2023-02-14T23:49:26.618Z,99573.91
2023-02-14T23:51:55.826Z,99537.72
2023-02-14T23:54:24.008Z,99538.22
2023-02-14T23:56:52.494Z,99554.84
2023-02-14T23:59:21.037Z,99557.72
